Time;durP1;ratioP1;P1;durP2;ratioP2;P2;SDS_P1;SDS_P2;PMS_P1;PMS_P2;Temp;Humidity;BMP_temperature;BMP_pressure;BME280_temperature;BME280_humidity;BME280_pressure;Samples;Min_cycle;Max_cycle;Signal;HPM_P1;HPM_P2
2023/09/29 00:00:51;;;;;;;13.57;3.53;;;15.20;99.90;;;;;;5009186;28;20041;-63
2023/09/29 00:03:17;;;;;;;14.55;3.03;;;15.20;99.90;;;;;;5028069;28;20041;-63
2023/09/29 00:05:43;;;;;;;11.35;3.88;;;15.20;99.90;;;;;;5044315;28;20054;-63
2023/09/29 00:08:13;;;;;;;12.40;3.13;;;15.10;99.90;;;;;;5045928;28;20041;-63
2023/09/29 00:10:40;;;;;;;10.68;2.75;;;15.20;99.90;;;;;;5045238;28;20036;-63
2023/09/29 00:13:06;;;;;;;12.52;2.80;;;15.10;99.90;;;;;;5028333;28;20502;-63
2023/09/29 00:15:33;;;;;;;10.57;2.85;;;15.20;99.90;;;;;;5027987;28;20045;-63
2023/09/29 00:18:00;;;;;;;13.45;3.75;;;15.20;99.90;;;;;;5045529;28;20041;-63
2023/09/29 00:20:26;;;;;;;16.88;3.70;;;15.20;99.90;;;;;;5046475;28;20077;-63
2023/09/29 00:22:56;;;;;;;13.20;3.15;;;15.20;99.90;;;;;;5043488;28;20130;-63
2023/09/29 00:25:23;;;;;;;13.30;3.75;;;15.20;99.90;;;;;;5028230;28;20516;-63
2023/09/29 00:27:49;;;;;;;13.07;3.83;;;15.20;99.90;;;;;;5045212;28;20056;-63
2023/09/29 00:30:15;;;;;;;12.98;3.08;;;15.30;99.90;;;;;;5046559;28;20033;-64
2023/09/29 00:32:48;;;;;;;11.38;3.03;;;15.30;99.90;;;;;;5048268;28;20060;-63
2023/09/29 00:35:19;;;;;;;15.35;2.90;;;15.30;99.90;;;;;;5045243;28;20756;-63
2023/09/29 00:37:45;;;;;;;13.27;2.55;;;15.30;99.90;;;;;;5045743;28;20049;-63
2023/09/29 00:40:14;;;;;;;12.48;2.67;;;15.40;99.90;;;;;;5046671;28;20049;-63
2023/09/29 00:42:42;;;;;;;14.02;3.40;;;15.30;99.90;;;;;;5049006;28;20494;-63
2023/09/29 00:45:09;;;;;;;12.65;3.50;;;15.40;99.90;;;;;;5031769;28;20398;-64
2023/09/29 00:47:37;;;;;;;17.27;3.38;;;15.40;99.90;;;;;;5049564;28;20045;-63
2023/09/29 00:50:07;;;;;;;12.40;2.95;;;15.40;99.90;;;;;;5058397;28;20056;-63
2023/09/29 00:52:37;;;;;;;15.52;3.03;;;15.40;99.90;;;;;;5049671;28;20079;-63
2023/09/29 00:55:06;;;;;;;10.70;2.92;;;15.40;99.90;;;;;;5049283;28;20156;-64
2023/09/29 00:57:33;;;;;;;7.72;2.55;;;15.40;99.90;;;;;;5049459;28;20051;-63
2023/09/29 01:00:00;;;;;;;12.48;3.92;;;15.30;99.90;;;;;;5031314;28;20041;-64
2023/09/29 01:02:26;;;;;;;15.65;3.15;;;15.40;99.90;;;;;;5013742;28;20041;-63
2023/09/29 01:04:53;;;;;;;10.10;3.30;;;15.30;99.90;;;;;;5031005;28;20053;-63
2023/09/29 01:07:19;;;;;;;20.15;3.60;;;15.30;99.90;;;;;;5030561;28;20068;-63
2023/09/29 01:09:45;;;;;;;10.90;2.88;;;15.30;99.90;;;;;;5048834;28;20118;-63
2023/09/29 01:12:27;;;;;;;14.07;2.80;;;15.30;99.90;;;;;;5030642;28;20045;-63
2023/09/29 01:14:53;;;;;;;16.63;3.25;;;15.30;99.90;;;;;;5035627;28;20073;-63
2023/09/29 01:17:20;;;;;;;18.05;3.50;;;15.30;99.90;;;;;;5030791;28;20049;-63
2023/09/29 01:19:48;;;;;;;14.43;3.08;;;15.30;99.90;;;;;;5048078;28;20075;-63
2023/09/29 01:22:14;;;;;;;17.98;3.35;;;15.30;99.90;;;;;;5015084;28;20051;-64
2023/09/29 01:24:40;;;;;;;11.77;2.95;;;15.30;99.90;;;;;;5030213;28;20045;-63
2023/09/29 01:27:06;;;;;;;5.45;2.70;;;15.40;99.90;;;;;;5048689;28;20063;-63
2023/09/29 01:29:32;;;;;;;17.30;3.05;;;15.40;99.90;;;;;;5048354;28;20051;-63
2023/09/29 01:31:58;;;;;;;17.95;3.40;;;15.30;99.90;;;;;;5030416;28;20057;-63
2023/09/29 01:34:24;;;;;;;11.93;3.30;;;15.40;99.90;;;;;;5048517;28;20045;-63
2023/09/29 01:36:50;;;;;;;9.60;2.92;;;15.30;99.90;;;;;;5047461;28;20057;-63
2023/09/29 01:39:16;;;;;;;17.73;3.45;;;15.30;99.90;;;;;;5048665;28;20041;-64
2023/09/29 01:41:43;;;;;;;9.57;2.30;;;15.30;99.90;;;;;;5048183;28;20414;-63
2023/09/29 01:44:09;;;;;;;12.25;3.10;;;15.30;99.90;;;;;;5048369;28;20059;-63
2023/09/29 01:46:35;;;;;;;10.23;3.03;;;15.30;99.90;;;;;;5030289;28;20037;-63
2023/09/29 01:49:01;;;;;;;10.23;2.83;;;15.40;99.90;;;;;;5048151;28;20533;-63
2023/09/29 01:51:30;;;;;;;11.95;2.88;;;15.30;99.90;;;;;;5046022;28;20048;-63
2023/09/29 01:53:55;;;;;;;8.57;2.72;;;15.30;99.90;;;;;;5047918;28;20076;-64
2023/09/29 01:56:21;;;;;;;17.10;3.10;;;15.30;99.90;;;;;;5048192;28;20076;-63
2023/09/29 01:58:51;;;;;;;5.88;2.42;;;15.30;99.90;;;;;;5047846;28;20465;-64
2023/09/29 02:01:16;;;;;;;;;;;15.30;99.90;;;;;;5047698;28;20626;-63
2023/09/29 02:03:45;;;;;;;13.75;3.08;;;15.30;99.90;;;;;;5029284;28;20047;-63
2023/09/29 02:06:10;;;;;;;12.43;3.28;;;15.30;99.90;;;;;;5047414;28;20126;-63
2023/09/29 02:08:36;;;;;;;10.75;2.92;;;15.40;99.90;;;;;;5029327;28;20041;-63
2023/09/29 02:11:02;;;;;;;12.13;2.90;;;15.30;99.90;;;;;;5029819;28;20080;-63
2023/09/29 02:13:30;;;;;;;15.48;4.07;;;15.30;99.90;;;;;;5030162;28;20518;-63
2023/09/29 02:15:55;;;;;;;11.93;3.13;;;15.30;99.90;;;;;;5045821;28;20041;-63
2023/09/29 02:18:21;;;;;;;8.32;2.85;;;15.30;99.90;;;;;;5048490;28;20453;-63
2023/09/29 02:20:47;;;;;;;5.80;2.30;;;15.30;99.90;;;;;;5047581;28;20398;-63
2023/09/29 02:23:14;;;;;;;10.98;2.72;;;15.30;99.90;;;;;;5048876;28;20495;-63
2023/09/29 02:25:41;;;;;;;18.75;3.42;;;15.30;99.90;;;;;;5047313;28;20049;-63
2023/09/29 02:28:10;;;;;;;9.40;2.85;;;15.40;99.90;;;;;;5047288;28;20048;-64
2023/09/29 02:30:36;;;;;;;7.85;2.47;;;15.30;99.90;;;;;;5047699;28;20048;-63
2023/09/29 02:33:02;;;;;;;13.13;3.38;;;15.30;99.90;;;;;;5028497;28;20040;-63
2023/09/29 02:35:28;;;;;;;14.50;3.30;;;15.30;99.90;;;;;;5047649;28;20054;-64
2023/09/29 02:37:54;;;;;;;11.32;3.00;;;15.30;99.90;;;;;;5046835;28;20168;-63
2023/09/29 02:40:22;;;;;;;10.43;2.80;;;15.30;99.90;;;;;;5047333;28;20109;-63
2023/09/29 02:42:49;;;;;;;12.65;3.10;;;15.30;99.90;;;;;;5047384;28;20049;-63
2023/09/29 02:45:15;;;;;;;10.77;3.00;;;15.40;99.90;;;;;;5033264;28;20126;-63
2023/09/29 02:47:42;;;;;;;8.02;2.90;;;15.30;99.90;;;;;;5047139;28;20182;-63
2023/09/29 02:50:09;;;;;;;8.73;2.58;;;15.30;99.90;;;;;;5045288;28;20146;-64
2023/09/29 02:52:37;;;;;;;13.52;2.95;;;15.40;99.90;;;;;;5029297;28;20517;-63
2023/09/29 02:55:04;;;;;;;8.40;2.63;;;15.40;99.90;;;;;;5028158;28;20498;-63
2023/09/29 02:57:30;;;;;;;6.72;2.30;;;15.40;99.90;;;;;;5047384;28;20048;-63
2023/09/29 02:59:57;;;;;;;7.28;2.15;;;15.40;99.90;;;;;;5046246;28;20422;-63
2023/09/29 03:02:23;;;;;;;7.97;2.60;;;15.40;99.90;;;;;;5052283;28;20056;-63
2023/09/29 03:04:50;;;;;;;14.32;3.08;;;15.40;99.90;;;;;;5046020;28;20033;-63
2023/09/29 03:07:16;;;;;;;16.83;3.00;;;15.40;99.90;;;;;;5028086;28;20120;-63
2023/09/29 03:09:42;;;;;;;18.00;2.95;;;15.40;99.90;;;;;;5046266;28;20124;-64
2023/09/29 03:12:08;;;;;;;12.43;2.88;;;15.50;99.90;;;;;;5046165;28;20053;-63
2023/09/29 03:14:34;;;;;;;11.20;2.83;;;15.50;99.90;;;;;;5046818;28;20632;-63
2023/09/29 03:17:02;;;;;;;10.02;2.78;;;15.50;99.90;;;;;;5046407;28;20052;-64
2023/09/29 03:19:30;;;;;;;14.75;2.97;;;15.40;99.90;;;;;;5046989;28;20391;-63
2023/09/29 03:21:58;;;;;;;9.15;2.70;;;15.40;99.90;;;;;;5046450;28;20041;-63
2023/09/29 03:24:27;;;;;;;10.65;2.53;;;15.50;99.90;;;;;;5045912;28;20055;-63
2023/09/29 03:26:53;;;;;;;10.45;2.50;;;15.40;99.90;;;;;;5046539;28;20068;-63
2023/09/29 03:29:19;;;;;;;9.40;2.35;;;15.40;99.90;;;;;;5046041;28;20132;-64
2023/09/29 03:31:46;;;;;;;9.65;2.85;;;15.50;99.90;;;;;;5045143;28;20084;-64
2023/09/29 03:34:13;;;;;;;11.05;2.75;;;15.40;99.90;;;;;;5046000;28;20041;-63
2023/09/29 03:36:39;;;;;;;11.00;2.47;;;15.50;99.90;;;;;;5046223;28;20044;-63
2023/09/29 03:39:06;;;;;;;11.52;3.10;;;15.50;99.90;;;;;;5039199;28;20061;-64
2023/09/29 03:41:33;;;;;;;12.23;2.60;;;15.50;99.90;;;;;;5026764;28;20147;-63
2023/09/29 03:44:00;;;;;;;8.70;2.72;;;15.50;99.90;;;;;;5008757;28;20136;-63
2023/09/29 03:46:25;;;;;;;9.25;3.03;;;15.50;99.90;;;;;;5025448;28;20045;-63
2023/09/29 03:48:52;;;;;;;5.72;2.15;;;15.50;99.90;;;;;;5027154;28;20114;-63
2023/09/29 03:51:24;;;;;;;11.02;2.97;;;15.50;99.90;;;;;;5025565;28;20406;-63
2023/09/29 03:53:51;;;;;;;9.70;3.10;;;15.50;99.90;;;;;;5014024;28;20041;-63
2023/09/29 03:56:16;;;;;;;9.55;2.78;;;15.50;99.90;;;;;;5007725;28;20037;-63
2023/09/29 03:58:44;;;;;;;14.40;2.95;;;15.60;99.90;;;;;;5008773;28;20038;-63
2023/09/29 04:01:09;;;;;;;12.48;2.67;;;15.50;99.90;;;;;;5025487;28;20508;-63
2023/09/29 04:03:35;;;;;;;6.40;2.58;;;15.50;99.90;;;;;;5008151;28;20048;-63
2023/09/29 04:06:01;;;;;;;9.98;3.17;;;15.50;99.90;;;;;;5008696;28;20041;-64
2023/09/29 04:08:27;;;;;;;12.23;2.95;;;15.60;99.90;;;;;;5025785;28;20054;-63
2023/09/29 04:10:55;;;;;;;10.35;3.05;;;15.60;99.90;;;;;;5008674;28;20057;-63
2023/09/29 04:13:21;;;;;;;13.77;3.40;;;15.60;99.90;;;;;;5007502;28;20434;-63
2023/09/29 04:15:47;;;;;;;8.80;3.55;;;15.60;99.90;;;;;;5010473;28;20101;-64
2023/09/29 04:18:12;;;;;;;12.27;3.70;;;15.70;99.90;;;;;;5011308;28;20049;-63
2023/09/29 04:20:38;;;;;;;15.80;3.65;;;15.70;99.90;;;;;;5029940;28;20077;-63
2023/09/29 04:23:07;;;;;;;13.13;3.40;;;15.70;99.90;;;;;;5032245;28;20089;-64
2023/09/29 04:25:33;;;;;;;14.30;3.03;;;15.70;99.90;;;;;;5029406;28;20041;-63
2023/09/29 04:27:59;;;;;;;15.43;3.28;;;15.80;99.90;;;;;;5013959;28;20049;-64
2023/09/29 04:30:25;;;;;;;10.35;3.53;;;15.80;99.90;;;;;;5028423;28;20084;-63
2023/09/29 04:32:52;;;;;;;11.07;3.40;;;15.80;99.90;;;;;;5030162;28;20041;-64
2023/09/29 04:35:18;;;;;;;13.60;3.80;;;15.80;99.90;;;;;;5035669;28;20045;-63
2023/09/29 04:37:45;;;;;;;6.72;3.03;;;15.80;99.90;;;;;;5029815;28;20045;-64
2023/09/29 04:40:11;;;;;;;17.80;3.75;;;15.70;99.90;;;;;;5029226;28;20491;-63
2023/09/29 04:42:37;;;;;;;14.25;3.97;;;15.80;99.90;;;;;;4995274;28;20049;-64
2023/09/29 04:45:04;;;;;;;16.02;4.10;;;15.80;99.90;;;;;;5029216;28;20466;-63
2023/09/29 04:47:30;;;;;;;14.63;4.00;;;15.90;99.90;;;;;;5019466;28;20089;-63
2023/09/29 04:49:56;;;;;;;10.60;4.32;;;15.80;99.90;;;;;;5029698;28;20107;-63
2023/09/29 04:52:22;;;;;;;7.38;3.28;;;15.80;99.90;;;;;;5028457;28;20045;-63
2023/09/29 04:54:48;;;;;;;9.43;3.60;;;15.90;99.90;;;;;;5029684;28;20368;-64
2023/09/29 04:57:14;;;;;;;13.65;3.53;;;15.90;99.90;;;;;;5028744;28;20053;-63
2023/09/29 04:59:40;;;;;;;10.88;4.13;;;15.80;99.90;;;;;;5012678;28;20042;-63
2023/09/29 05:02:06;;;;;;;16.38;3.83;;;15.90;99.90;;;;;;5030602;28;20048;-63
2023/09/29 05:04:32;;;;;;;8.93;3.67;;;15.90;99.90;;;;;;5029612;28;20115;-64
2023/09/29 05:06:58;;;;;;;10.90;4.00;;;15.90;99.90;;;;;;5031352;28;20045;-63
2023/09/29 05:09:24;;;;;;;13.07;4.00;;;15.90;99.90;;;;;;5027794;28;20522;-63
2023/09/29 05:11:49;;;;;;;12.52;3.83;;;15.90;99.90;;;;;;5029459;28;20041;-63
2023/09/29 05:14:15;;;;;;;7.40;3.15;;;15.90;99.90;;;;;;5010282;28;20125;-63
2023/09/29 05:16:41;;;;;;;10.40;4.10;;;16.00;99.90;;;;;;5009742;28;20530;-64
2023/09/29 05:19:06;;;;;;;12.85;4.10;;;16.00;99.90;;;;;;5031760;28;20069;-63
2023/09/29 05:21:32;;;;;;;12.80;3.70;;;16.00;99.90;;;;;;5016636;28;20087;-63
2023/09/29 05:23:58;;;;;;;10.65;3.88;;;15.90;99.90;;;;;;5037831;28;20077;-63
2023/09/29 05:26:24;;;;;;;9.73;4.13;;;16.00;99.90;;;;;;5027871;28;20034;-63
2023/09/29 05:28:51;;;;;;;11.68;3.92;;;16.00;99.90;;;;;;5028495;28;20052;-63
2023/09/29 05:31:17;;;;;;;10.00;3.67;;;16.00;99.90;;;;;;5027379;28;20049;-63
2023/09/29 05:33:42;;;;;;;14.90;3.58;;;16.00;99.90;;;;;;5028172;28;20045;-63
2023/09/29 05:36:08;;;;;;;13.23;4.00;;;16.00;99.90;;;;;;5031561;28;20041;-63
2023/09/29 05:38:34;;;;;;;14.88;3.83;;;16.00;99.90;;;;;;5008480;28;20510;-63
2023/09/29 05:40:59;;;;;;;10.20;3.70;;;16.00;99.90;;;;;;5048188;28;20118;-63
2023/09/29 05:43:26;;;;;;;10.88;3.95;;;16.10;99.90;;;;;;5047754;28;20245;-63
2023/09/29 05:45:51;;;;;;;14.18;4.55;;;16.10;99.90;;;;;;5048185;28;20045;-64
2023/09/29 05:48:17;;;;;;;13.57;3.70;;;16.10;99.90;;;;;;5046319;28;20071;-64
2023/09/29 05:50:43;;;;;;;10.68;3.92;;;16.10;99.90;;;;;;5030132;28;20048;-64
2023/09/29 05:53:09;;;;;;;8.35;3.60;;;16.10;99.90;;;;;;5028958;28;20131;-63
2023/09/29 05:55:34;;;;;;;10.48;4.13;;;16.20;99.90;;;;;;5047709;28;20123;-63
2023/09/29 05:58:01;;;;;;;15.68;4.65;;;16.20;99.90;;;;;;5043285;28;20049;-63
2023/09/29 06:00:27;;;;;;;8.98;4.00;;;16.20;99.90;;;;;;5046257;28;20073;-64
2023/09/29 06:02:53;;;;;;;13.30;4.28;;;16.20;99.90;;;;;;5034582;28;20875;-63
2023/09/29 06:05:19;;;;;;;14.60;4.30;;;16.20;99.90;;;;;;5013161;28;20049;-64
2023/09/29 06:07:45;;;;;;;11.88;5.00;;;16.20;99.90;;;;;;5050447;28;20045;-63
2023/09/29 06:10:11;;;;;;;7.40;4.07;;;16.20;99.90;;;;;;5029627;28;20082;-63
2023/09/29 06:12:37;;;;;;;12.55;4.20;;;16.30;99.90;;;;;;5029914;28;20048;-64
2023/09/29 06:15:03;;;;;;;13.95;3.95;;;16.30;99.90;;;;;;5029841;28;20056;-63
2023/09/29 06:17:31;;;;;;;13.13;5.30;;;16.30;99.90;;;;;;5046849;28;20041;-63
2023/09/29 06:19:57;;;;;;;9.13;4.03;;;16.30;99.90;;;;;;5047869;28;20132;-64
2023/09/29 06:22:23;;;;;;;10.07;5.10;;;16.30;99.90;;;;;;5047317;28;20473;-64
2023/09/29 06:24:48;;;;;;;17.40;5.68;;;16.30;99.90;;;;;;5047819;28;20147;-64
2023/09/29 06:27:14;;;;;;;12.25;5.25;;;16.30;99.90;;;;;;5029268;28;20430;-64
2023/09/29 06:29:40;;;;;;;11.48;4.82;;;16.40;99.90;;;;;;5029690;28;20123;-64
2023/09/29 06:32:11;;;;;;;8.00;4.47;;;16.30;99.90;;;;;;5046255;28;20045;-64
2023/09/29 06:34:36;;;;;;;12.05;5.28;;;16.30;99.90;;;;;;5012173;28;20052;-64
2023/09/29 06:37:02;;;;;;;8.35;4.63;;;16.40;99.90;;;;;;5047054;28;20078;-64
2023/09/29 06:39:29;;;;;;;11.60;5.15;;;16.40;99.90;;;;;;5046895;28;20194;-64
2023/09/29 06:41:55;;;;;;;14.75;4.72;;;16.30;99.90;;;;;;5044447;28;20060;-64
2023/09/29 06:44:22;;;;;;;10.63;4.90;;;16.30;99.90;;;;;;5045911;28;20040;-64
2023/09/29 06:46:47;;;;;;;15.60;5.30;;;16.30;99.90;;;;;;5026171;28;20063;-64
2023/09/29 06:49:13;;;;;;;9.88;5.95;;;16.40;99.90;;;;;;5045523;28;20049;-64
2023/09/29 06:51:39;;;;;;;15.82;5.15;;;16.30;99.90;;;;;;5045247;28;20060;-64
2023/09/29 06:54:05;;;;;;;10.13;4.60;;;16.30;99.90;;;;;;5046080;28;20737;-64
2023/09/29 06:56:31;;;;;;;11.30;4.65;;;16.40;99.90;;;;;;5027878;28;20052;-64
2023/09/29 06:58:56;;;;;;;11.50;4.93;;;16.40;99.90;;;;;;5045435;28;20047;-64
2023/09/29 07:01:22;;;;;;;12.27;4.82;;;16.40;99.90;;;;;;5029053;28;20041;-64
2023/09/29 07:03:48;;;;;;;13.75;5.30;;;16.30;99.90;;;;;;5027121;28;20126;-64
2023/09/29 07:06:14;;;;;;;8.10;4.65;;;16.40;99.90;;;;;;5045777;28;20048;-64
2023/09/29 07:08:40;;;;;;;13.68;5.43;;;16.40;99.90;;;;;;5045467;28;20068;-64
2023/09/29 07:11:06;;;;;;;9.95;5.43;;;16.40;99.90;;;;;;5025817;28;20085;-64
2023/09/29 07:13:32;;;;;;;10.38;4.63;;;16.40;99.90;;;;;;5027183;28;20048;-64
2023/09/29 07:15:58;;;;;;;8.52;4.75;;;16.50;99.90;;;;;;5045362;28;20055;-64
2023/09/29 07:18:24;;;;;;;11.43;5.28;;;16.50;99.90;;;;;;5027812;28;20364;-64
2023/09/29 07:20:53;;;;;;;12.68;5.72;;;16.50;99.90;;;;;;5027411;28;20132;-64
2023/09/29 07:23:22;;;;;;;8.95;5.85;;;16.50;99.90;;;;;;5026706;28;20135;-64
2023/09/29 07:25:54;;;;;;;10.95;5.40;;;16.50;99.90;;;;;;5027885;28;20072;-64
2023/09/29 07:28:21;;;;;;;13.70;5.90;;;16.60;99.90;;;;;;5045535;28;20040;-64
2023/09/29 07:30:47;;;;;;;10.77;6.03;;;16.70;99.90;;;;;;5044993;28;20048;-65
2023/09/29 07:33:13;;;;;;;20.70;6.38;;;16.70;99.90;;;;;;5044904;28;20380;-64
2023/09/29 07:35:41;;;;;;;12.52;5.47;;;16.80;99.90;;;;;;5027888;28;20106;-64
2023/09/29 07:38:07;;;;;;;9.50;3.72;;;16.90;99.90;;;;;;5044433;28;20075;-64
2023/09/29 07:40:33;;;;;;;11.57;4.15;;;16.90;99.90;;;;;;5045105;28;20089;-64
2023/09/29 07:42:59;;;;;;;7.88;3.33;;;17.00;99.90;;;;;;5045031;28;20562;-64
2023/09/29 07:45:25;;;;;;;13.20;3.60;;;17.00;99.90;;;;;;5010430;28;20133;-64
2023/09/29 07:47:51;;;;;;;6.65;3.83;;;17.10;99.90;;;;;;5027127;28;20045;-64
2023/09/29 07:50:17;;;;;;;7.60;3.72;;;17.20;99.90;;;;;;5032934;28;20047;-64
2023/09/29 07:52:43;;;;;;;6.65;3.55;;;17.20;99.90;;;;;;5049249;28;20037;-64
2023/09/29 07:55:09;;;;;;;7.85;3.55;;;17.30;99.90;;;;;;5048385;28;20056;-64
2023/09/29 07:57:35;;;;;;;7.85;3.53;;;17.40;99.90;;;;;;5048503;28;20041;-63
2023/09/29 08:00:04;;;;;;;8.48;3.45;;;17.50;99.90;;;;;;5048748;28;20037;-64
2023/09/29 08:02:31;;;;;;;9.73;3.30;;;17.60;99.90;;;;;;5048893;28;20049;-64
2023/09/29 08:04:57;;;;;;;5.72;3.17;;;17.60;99.90;;;;;;5027589;28;20402;-64
2023/09/29 08:07:23;;;;;;;5.43;3.13;;;17.80;99.90;;;;;;5048975;28;21025;-63
2023/09/29 08:09:49;;;;;;;9.10;3.28;;;17.80;99.90;;;;;;5048537;28;20044;-64
2023/09/29 08:12:16;;;;;;;6.75;2.88;;;17.90;99.90;;;;;;5031022;28;20049;-63
2023/09/29 08:14:42;;;;;;;5.43;2.95;;;17.80;99.90;;;;;;5031318;28;20564;-63
2023/09/29 08:17:08;;;;;;;11.35;3.08;;;17.90;99.90;;;;;;5047794;28;20071;-64
2023/09/29 08:19:34;;;;;;;7.75;2.83;;;18.00;99.90;;;;;;5048327;28;20045;-64
2023/09/29 08:22:00;;;;;;;6.13;3.05;;;18.00;99.90;;;;;;5048510;28;20074;-64
2023/09/29 08:24:25;;;;;;;5.85;3.15;;;18.10;99.90;;;;;;5048465;28;20561;-64
2023/09/29 08:26:51;;;;;;;6.57;2.80;;;18.30;99.90;;;;;;5029804;28;20047;-64
2023/09/29 08:29:17;;;;;;;9.32;3.20;;;18.30;99.90;;;;;;5048657;28;20037;-64
2023/09/29 08:31:46;;;;;;;6.78;2.50;;;18.50;99.90;;;;;;5048129;28;20469;-63
2023/09/29 08:34:11;;;;;;;4.68;2.63;;;18.60;99.90;;;;;;5013425;28;20056;-63
2023/09/29 08:36:37;;;;;;;5.25;2.47;;;18.70;99.90;;;;;;5030624;28;20041;-64
2023/09/29 08:39:03;;;;;;;4.55;2.20;;;18.80;99.90;;;;;;5048049;28;20758;-63
2023/09/29 08:41:32;;;;;;;6.75;2.60;;;18.90;99.90;;;;;;5047810;28;20053;-63
2023/09/29 08:43:58;;;;;;;8.65;2.72;;;19.00;99.90;;;;;;5024517;28;20049;-64
2023/09/29 08:46:24;;;;;;;5.90;2.70;;;19.20;99.90;;;;;;5025870;28;20461;-63
2023/09/29 08:48:52;;;;;;;12.85;2.63;;;19.30;99.90;;;;;;5047365;28;20056;-63
2023/09/29 08:51:19;;;;;;;6.00;2.67;;;19.40;99.90;;;;;;5048636;28;20037;-64
2023/09/29 08:53:45;;;;;;;5.32;2.08;;;19.30;99.90;;;;;;5033954;28;20084;-63
2023/09/29 08:56:12;;;;;;;5.95;2.42;;;19.50;99.90;;;;;;5029891;28;20517;-64
2023/09/29 08:58:38;;;;;;;3.40;2.28;;;19.50;99.90;;;;;;5047773;28;20048;-63
2023/09/29 09:01:05;;;;;;;3.10;2.20;;;19.60;99.90;;;;;;5047905;28;20045;-63
2023/09/29 09:03:31;;;;;;;4.05;2.20;;;19.70;99.90;;;;;;5047959;28;20094;-63
2023/09/29 09:05:57;;;;;;;3.45;1.95;;;19.80;99.90;;;;;;5029104;28;20053;-64
2023/09/29 09:08:24;;;;;;;6.85;2.22;;;19.90;99.90;;;;;;5047576;28;20551;-64
2023/09/29 09:11:00;;;;;;;5.88;2.85;;;20.10;99.90;;;;;;5043784;28;20037;-64
2023/09/29 09:13:26;;;;;;;5.63;1.73;;;20.20;99.90;;;;;;5038231;28;20073;-63
2023/09/29 09:15:59;;;;;;;3.63;2.15;;;20.40;99.90;;;;;;5045725;28;20530;-63
2023/09/29 09:18:27;;;;;;;5.03;1.90;;;20.40;99.90;;;;;;5030087;28;20091;-63
2023/09/29 09:20:54;;;;;;;5.55;1.88;;;20.50;99.90;;;;;;5046563;28;20045;-64
2023/09/29 09:23:20;;;;;;;1.90;1.70;;;20.60;99.90;;;;;;5047735;28;20049;-63
2023/09/29 09:25:46;;;;;;;3.88;1.85;;;20.70;99.90;;;;;;5029571;28;20506;-64
2023/09/29 09:28:16;;;;;;;2.05;1.50;;;20.70;99.90;;;;;;5047211;28;20041;-64
2023/09/29 09:30:42;;;;;;;5.47;2.03;;;20.80;99.90;;;;;;5046860;28;20056;-64
2023/09/29 09:33:18;;;;;;;5.85;1.52;;;20.90;99.90;;;;;;5046271;28;20048;-64
2023/09/29 09:35:44;;;;;;;3.42;1.33;;;20.90;99.90;;;;;;5047817;28;20106;-63
2023/09/29 09:38:10;;;;;;;2.75;1.95;;;21.00;99.90;;;;;;5007101;28;20048;-64
2023/09/29 09:40:36;;;;;;;3.50;1.73;;;20.90;99.90;;;;;;5037137;28;20057;-63
2023/09/29 09:43:10;;;;;;;4.85;1.35;;;21.00;99.90;;;;;;5046730;28;20091;-63
2023/09/29 09:45:40;;;;;;;5.00;2.17;;;21.00;99.90;;;;;;5030812;28;20076;-64
2023/09/29 09:48:16;;;;;;;1.63;1.42;;;20.90;99.90;;;;;;5046865;28;20117;-63
2023/09/29 09:50:45;;;;;;;2.22;1.60;;;20.90;99.90;;;;;;5027719;28;20071;-63
2023/09/29 09:53:13;;;;;;;;;;;20.90;99.90;;;;;;5047466;28;20125;-64
2023/09/29 09:55:42;;;;;;;5.80;1.55;;;21.00;99.90;;;;;;5046875;28;19929;-64
2023/09/29 09:58:12;;;;;;;5.00;1.83;;;21.10;99.90;;;;;;5044891;28;20371;-64
2023/09/29 10:00:50;;;;;;;4.20;1.65;;;21.20;99.90;;;;;;5047152;28;20173;-64
2023/09/29 10:03:17;;;;;;;5.32;1.70;;;21.30;99.90;;;;;;5046188;28;20056;-64
2023/09/29 10:05:52;;;;;;;4.53;1.77;;;21.40;99.90;;;;;;5038759;28;20094;-64
2023/09/29 10:08:29;;;;;;;4.65;1.70;;;21.50;99.90;;;;;;5046387;28;20052;-64
2023/09/29 10:11:13;;;;;;;3.97;1.80;;;21.50;99.90;;;;;;5027693;28;20049;-64
2023/09/29 10:13:47;;;;;;;4.47;1.45;;;21.60;99.90;;;;;;5027817;28;20047;-63
2023/09/29 10:16:23;;;;;;;3.63;1.58;;;21.70;99.90;;;;;;5046240;28;20119;-64
2023/09/29 10:19:00;;;;;;;3.60;1.70;;;21.70;99.90;;;;;;5046361;28;20045;-63
2023/09/29 10:21:33;;;;;;;2.75;1.50;;;21.80;99.90;;;;;;5037847;28;20037;-64
2023/09/29 10:24:05;;;;;;;2.78;1.50;;;22.00;99.90;;;;;;5046494;28;20035;-64
2023/09/29 10:26:46;;;;;;;6.88;1.73;;;22.00;99.90;;;;;;5045964;28;20498;-65
2023/09/29 10:29:25;;;;;;;4.40;1.40;;;22.00;99.90;;;;;;5028123;28;20045;-64
2023/09/29 10:31:53;;;;;;;3.63;1.73;;;22.00;99.90;;;;;;5044955;28;20081;-64
2023/09/29 10:34:22;;;;;;;4.60;1.45;;;22.00;99.90;;;;;;5019055;28;20578;-64
2023/09/29 10:36:55;;;;;;;2.50;1.60;;;21.90;99.90;;;;;;5033089;28;20056;-63
2023/09/29 10:39:29;;;;;;;5.35;1.45;;;21.90;99.90;;;;;;5035343;28;20132;-64
2023/09/29 10:42:14;;;;;;;2.08;1.10;;;21.80;99.90;;;;;;5015971;28;20453;-64
2023/09/29 10:44:52;;;;;;;3.47;1.92;;;21.70;99.90;;;;;;5040179;28;20155;-64
2023/09/29 10:47:39;;;;;;;2.97;1.27;;;21.70;99.90;;;;;;5026149;28;20061;-64
2023/09/29 10:50:11;;;;;;;5.07;1.50;;;21.60;99.90;;;;;;5027569;28;20114;-63
2023/09/29 10:52:37;;;;;;;5.82;1.55;;;21.50;99.90;;;;;;5022948;28;20037;-64
2023/09/29 10:55:04;;;;;;;5.10;1.45;;;21.40;99.90;;;;;;5042436;28;20080;-64
2023/09/29 10:57:30;;;;;;;2.42;1.70;;;21.30;99.90;;;;;;5040834;28;20553;-64
2023/09/29 11:00:01;;;;;;;4.40;1.55;;;21.20;99.90;;;;;;5045407;28;20087;-64
2023/09/29 11:02:32;;;;;;;3.00;1.67;;;21.20;99.90;;;;;;5042946;28;20128;-64
2023/09/29 11:05:05;;;;;;;4.70;1.58;;;21.20;99.90;;;;;;5045663;28;20472;-65
2023/09/29 11:07:42;;;;;;;4.53;2.10;;;21.10;99.90;;;;;;5010499;28;20091;-64
2023/09/29 11:10:12;;;;;;;5.10;1.52;;;21.10;99.90;;;;;;5029125;28;20092;-64
2023/09/29 11:12:40;;;;;;;2.72;1.48;;;21.20;99.90;;;;;;5027055;28;20449;-64
2023/09/29 11:15:09;;;;;;;2.22;1.17;;;21.20;99.90;;;;;;5044192;28;20745;-64
2023/09/29 11:18:01;;;;;;;5.18;1.35;;;21.30;99.90;;;;;;5026508;28;20464;-64
2023/09/29 11:20:27;;;;;;;5.13;1.77;;;21.30;99.90;;;;;;5040735;28;20376;-62
2023/09/29 11:23:11;;;;;;;2.25;1.20;;;21.30;99.90;;;;;;5023001;28;20479;-64
2023/09/29 11:25:54;;;;;;;3.20;1.48;;;21.20;99.90;;;;;;5040587;28;20044;-64
2023/09/29 11:28:21;;;;;;;2.85;1.42;;;21.20;99.90;;;;;;5041656;28;20076;-64
2023/09/29 11:30:47;;;;;;;3.08;1.33;;;21.10;99.90;;;;;;5041917;28;20128;-64
2023/09/29 11:33:17;;;;;;;5.53;1.90;;;21.00;99.90;;;;;;5027206;28;20049;-64
2023/09/29 11:35:45;;;;;;;2.20;1.70;;;21.00;99.90;;;;;;5010500;28;20051;-64
2023/09/29 11:38:21;;;;;;;3.05;2.08;;;20.90;99.90;;;;;;5045169;28;20478;-64
2023/09/29 11:40:51;;;;;;;7.38;1.85;;;20.80;99.90;;;;;;5025611;28;20049;-64
2023/09/29 11:43:18;;;;;;;4.78;1.48;;;20.80;99.90;;;;;;5041958;28;20415;-63
2023/09/29 11:45:44;;;;;;;7.10;1.70;;;20.70;99.90;;;;;;5044650;28;20084;-64
2023/09/29 11:48:10;;;;;;;3.35;1.48;;;20.70;99.90;;;;;;5045078;28;20111;-64
2023/09/29 11:50:36;;;;;;;3.00;1.48;;;20.70;99.90;;;;;;5010143;28;20379;-64
2023/09/29 11:53:06;;;;;;;4.40;1.27;;;20.80;99.90;;;;;;5043518;28;20114;-64
2023/09/29 11:55:34;;;;;;;6.88;1.60;;;20.80;99.90;;;;;;5026282;28;20410;-64
2023/09/29 11:58:01;;;;;;;3.72;1.60;;;20.80;99.90;;;;;;5045213;28;20045;-64
2023/09/29 12:00:27;;;;;;;6.15;2.15;;;20.80;99.90;;;;;;5043907;28;20053;-64
2023/09/29 12:02:53;;;;;;;1.80;1.45;;;20.80;99.90;;;;;;5043268;28;20049;-64
2023/09/29 12:05:19;;;;;;;5.50;2.10;;;20.80;99.90;;;;;;5042104;28;20045;-64
2023/09/29 12:07:45;;;;;;;3.80;1.67;;;20.90;99.90;;;;;;5038305;28;20131;-62
2023/09/29 12:10:12;;;;;;;4.50;1.63;;;20.90;99.90;;;;;;5044623;28;20041;-63
2023/09/29 12:12:38;;;;;;;4.13;1.50;;;20.90;99.90;;;;;;5043982;28;20151;-64
2023/09/29 12:15:05;;;;;;;6.95;2.30;;;20.90;99.90;;;;;;5044765;28;20127;-64
2023/09/29 12:17:31;;;;;;;4.10;1.58;;;20.80;99.90;;;;;;5041825;28;20085;-65
2023/09/29 12:19:56;;;;;;;7.43;2.13;;;20.80;99.90;;;;;;5044687;28;20414;-64
2023/09/29 12:22:22;;;;;;;4.88;1.70;;;20.70;99.90;;;;;;5040349;28;20048;-64
2023/09/29 12:24:49;;;;;;;4.50;1.55;;;20.70;99.90;;;;;;5009878;28;20061;-66
2023/09/29 12:27:15;;;;;;;6.80;2.08;;;20.60;99.90;;;;;;5044251;28;20075;-67
2023/09/29 12:29:41;;;;;;;5.28;2.30;;;20.50;99.90;;;;;;5044106;28;20498;-69
2023/09/29 12:32:06;;;;;;;6.80;2.17;;;20.40;99.90;;;;;;5017639;28;20125;-68
2023/09/29 12:34:33;;;;;;;5.13;2.80;;;20.40;99.90;;;;;;5026232;28;20075;-67
2023/09/29 12:36:59;;;;;;;6.80;1.80;;;20.40;99.90;;;;;;5046923;28;20060;-68
2023/09/29 12:39:25;;;;;;;3.10;1.90;;;20.30;99.90;;;;;;5046011;28;20079;-68
2023/09/29 12:41:51;;;;;;;4.80;2.35;;;20.10;99.90;;;;;;5048360;28;20483;-67
2023/09/29 12:44:17;;;;;;;7.03;2.22;;;20.00;99.90;;;;;;5048493;28;20048;-68